ADDS METAR Data INFO
IDs: Format: Raw Decoded Include TAF

Data at: 1951 UTC 14 Aug 2018

KGLH 141853Z 27010KT 10SM FEW042 32/19 A3002 RMK AO2 SLP171 T03170194
KGLH 141753Z 28005KT 10SM CLR 30/22 A3004 RMK AO2 SLP177 T03000217 10311 20217 50001
KGLH 141653Z 26008KT 10SM CLR 30/21 A3005 RMK AO2 SLP180 T03000211
KGLH 141553Z 27007KT 10SM CLR 31/22 A3004 RMK AO2 SLP178 T03060222
KGLH 141453Z 25007KT 220V280 10SM CLR 28/22 A3004 RMK AO2 SLP176 T02830222 50005
KGLH 141353Z 17005KT 10SM CLR 26/22 A3004 RMK AO2 SLP177 T02560222
KGLH 141253Z 16003KT 10SM CLR 24/22 A3003 RMK AO2 SLP174 T02390217
KGLH 141153Z 17004KT 9SM CLR 22/21 A3002 RMK AO2 SLP170 T02170206 10233 20211 53005
KGLH 141053Z AUTO 12004KT 5SM BR CLR 21/20 A3001 RMK AO2 SLP166 T02110200
KGLH 141044Z AUTO 12004KT 3SM BR CLR 21/20 A3001 RMK AO2 T02110200
KGLH 141036Z AUTO 13003KT 1 3/4SM BR CLR 22/21 A3001 RMK AO2 T02170206
KGLH 140953Z AUTO 00000KT 7SM CLR 22/21 A3001 RMK AO2 SLP166 T02220211
KGLH 140853Z AUTO 00000KT 10SM CLR 22/21 A3000 RMK AO2 SLP165 T02220211 58001
KGLH 140753Z AUTO 00000KT 10SM CLR 23/22 A3001 RMK AO2 SLP166 T02330217
KGLH 140653Z AUTO 17003KT 6SM BR CLR 22/21 A3001 RMK AO2 SLP167 T02220211
KGLH 140553Z AUTO 13003KT 8SM CLR 23/22 A3001 RMK AO2 SLP166 T02280217 10283 20228 403170217 58001
KGLH 140453Z AUTO 11003KT 6SM BR CLR 23/22 A3001 RMK AO2 SLP166 T02330217
KGLH 140403Z AUTO 11003KT 5SM BR CLR 23/22 A3001 RMK AO2 T02330217
KGLH 140353Z AUTO 00000KT 2 1/2SM BR CLR 23/22 A3001 RMK AO2 VIS 1 1/4V5 SLP167 T02330217
KGLH 140253Z AUTO 00000KT 9SM CLR 24/22 A3001 RMK AO2 SLP167 T02440222 55001
KGLH 140153Z AUTO 05003KT 9SM CLR 26/23 A3000 RMK AO2 SLP163 T02560233
KGLH 140053Z AUTO 02003KT 10SM CLR 27/24 A3001 RMK AO2 SLP166 T02670239
KGLH 132353Z AUTO 03003KT 10SM CLR 28/24 A3001 RMK AO2 SLP168 60000 T02830239 10317 20283 57003
KGLH 132253Z 33005KT 10SM CLR 29/22 A3002 RMK AO2 SLP170 T02890222
KGLH 132153Z 00000KT 10SM CLR 30/23 A3002 RMK AO2 SLP169 T03000228
KGLH 132053Z 30007KT 10SM FEW041 32/21 A3002 RMK AO2 LTG DSNT E SLP171 60000 T03170206 56020
KGLH 131953Z 29007KT 10SM FEW037 SCT060 31/21 A3003 RMK AO2 LTG DSNT NE SLP175 T03060211
KGLH 131853Z 23011KT 10SM FEW039 FEW090 30/23 A3006 RMK AO2 RAB41E51 SLP183 P0000 T03000228
KGLH 131753Z VRB06KT 10SM CLR 29/22 A3008 RMK AO2 SLP192 T02940217 10294 20222 58000
KGLH 131653Z VRB03KT 10SM FEW026 FEW033 28/22 A3009 RMK AO2 SLP195 T02830222
KGLH 131553Z 26004KT 10SM CLR 28/22 A3009 RMK AO2 SLP195 T02780222
KGLH 131453Z 28003KT 10SM CLR 27/21 A3008 RMK AO2 SLP192 T02670211 53002
KGLH 131353Z 24003KT 10SM CLR 26/22 A3008 RMK AO2 SLP191 T02610222
KGLH 131253Z 00000KT 10SM CLR 24/22 A3008 RMK AO2 SLP191 T02390222
KGLH 131153Z 00000KT 8SM CLR 22/21 A3008 RMK AO2 SLP190 T02220206 10239 20217 53005
KGLH 131053Z AUTO 00000KT 8SM CLR 22/21 A3007 RMK AO2 SLP187 T02170206
KGLH 130953Z AUTO 00000KT 10SM CLR 23/21 A3007 RMK AO2 SLP186 T02280211
KGLH 130853Z AUTO 21003KT 10SM CLR 22/21 A3007 RMK AO2 SLP186 T02220211 53001
KGLH 130753Z AUTO 00000KT 10SM CLR 23/22 A3006 RMK AO2 SLP184 T02330217